sensor_id;sensor_type;location;lat;lon;timestamp;temperature;humidity
43607;DHT22;29197;44.788;10.366;2023-07-13T00:00:27;28.70;99.90
43607;DHT22;29197;44.788;10.366;2023-07-13T00:03:16;28.70;99.90
43607;DHT22;29197;44.788;10.366;2023-07-13T00:06:05;28.60;99.90
43607;DHT22;29197;44.788;10.366;2023-07-13T00:08:55;28.60;99.90
43607;DHT22;29197;44.788;10.366;2023-07-13T00:11:44;28.60;99.90
43607;DHT22;29197;44.788;10.366;2023-07-13T00:14:34;28.50;99.90
43607;DHT22;29197;44.788;10.366;2023-07-13T00:17:23;28.60;99.90
43607;DHT22;29197;44.788;10.366;2023-07-13T00:20:12;28.50;99.90
43607;DHT22;29197;44.788;10.366;2023-07-13T00:25:51;28.40;99.90
43607;DHT22;29197;44.788;10.366;2023-07-13T00:28:40;28.30;99.90
43607;DHT22;29197;44.788;10.366;2023-07-13T00:31:29;28.30;99.90
43607;DHT22;29197;44.788;10.366;2023-07-13T00:34:17;28.30;99.90
43607;DHT22;29197;44.788;10.366;2023-07-13T00:37:07;28.30;99.90
43607;DHT22;29197;44.788;10.366;2023-07-13T00:39:56;28.30;99.90
43607;DHT22;29197;44.788;10.366;2023-07-13T00:42:46;28.30;99.90
43607;DHT22;29197;44.788;10.366;2023-07-13T00:46:11;28.30;99.90
43607;DHT22;29197;44.788;10.366;2023-07-13T00:49:02;28.40;99.90
43607;DHT22;29197;44.788;10.366;2023-07-13T00:51:55;28.40;99.90
43607;DHT22;29197;44.788;10.366;2023-07-13T00:54:46;28.50;99.90
43607;DHT22;29197;44.788;10.366;2023-07-13T00:57:35;28.50;99.90
43607;DHT22;29197;44.788;10.366;2023-07-13T01:00:26;28.40;99.90
43607;DHT22;29197;44.788;10.366;2023-07-13T01:03:16;28.40;99.90
43607;DHT22;29197;44.788;10.366;2023-07-13T01:06:05;28.50;99.90
43607;DHT22;29197;44.788;10.366;2023-07-13T01:08:55;28.40;99.90
43607;DHT22;29197;44.788;10.366;2023-07-13T01:11:44;28.20;99.90
43607;DHT22;29197;44.788;10.366;2023-07-13T01:14:33;28.10;99.90
43607;DHT22;29197;44.788;10.366;2023-07-13T01:17:23;28.10;99.90
43607;DHT22;29197;44.788;10.366;2023-07-13T01:20:12;28.10;99.90
43607;DHT22;29197;44.788;10.366;2023-07-13T01:25:52;27.80;99.90
43607;DHT22;29197;44.788;10.366;2023-07-13T01:28:42;27.50;99.90
43607;DHT22;29197;44.788;10.366;2023-07-13T01:31:31;27.20;99.90
43607;DHT22;29197;44.788;10.366;2023-07-13T01:34:19;27.10;99.90
43607;DHT22;29197;44.788;10.366;2023-07-13T01:37:08;27.30;99.90
43607;DHT22;29197;44.788;10.366;2023-07-13T01:39:58;27.40;99.90
43607;DHT22;29197;44.788;10.366;2023-07-13T01:42:47;27.40;99.90
43607;DHT22;29197;44.788;10.366;2023-07-13T01:45:36;27.40;99.90
43607;DHT22;29197;44.788;10.366;2023-07-13T01:48:25;27.30;99.90
43607;DHT22;29197;44.788;10.366;2023-07-13T01:51:13;27.30;99.90
43607;DHT22;29197;44.788;10.366;2023-07-13T01:54:02;27.40;99.90
43607;DHT22;29197;44.788;10.366;2023-07-13T01:56:52;27.50;99.90
43607;DHT22;29197;44.788;10.366;2023-07-13T01:59:41;27.50;99.90
43607;DHT22;29197;44.788;10.366;2023-07-13T02:02:29;27.60;99.90
43607;DHT22;29197;44.788;10.366;2023-07-13T02:05:19;27.70;99.90
43607;DHT22;29197;44.788;10.366;2023-07-13T02:08:07;27.70;99.90
43607;DHT22;29197;44.788;10.366;2023-07-13T02:10:56;27.70;99.90
43607;DHT22;29197;44.788;10.366;2023-07-13T02:13:46;27.80;99.90
43607;DHT22;29197;44.788;10.366;2023-07-13T02:16:34;27.80;99.90
43607;DHT22;29197;44.788;10.366;2023-07-13T02:19:23;27.80;99.90
43607;DHT22;29197;44.788;10.366;2023-07-13T02:22:12;27.90;99.90
43607;DHT22;29197;44.788;10.366;2023-07-13T02:25:01;27.80;99.90
43607;DHT22;29197;44.788;10.366;2023-07-13T02:27:50;27.80;99.90
43607;DHT22;29197;44.788;10.366;2023-07-13T02:30:40;27.90;99.90
43607;DHT22;29197;44.788;10.366;2023-07-13T02:33:28;27.80;99.90
43607;DHT22;29197;44.788;10.366;2023-07-13T02:36:17;27.80;99.90
43607;DHT22;29197;44.788;10.366;2023-07-13T02:39:06;27.70;99.90
43607;DHT22;29197;44.788;10.366;2023-07-13T02:41:54;27.70;99.90
43607;DHT22;29197;44.788;10.366;2023-07-13T02:44:43;27.70;99.90
43607;DHT22;29197;44.788;10.366;2023-07-13T02:47:33;27.80;99.90
43607;DHT22;29197;44.788;10.366;2023-07-13T02:50:22;28.00;99.90
43607;DHT22;29197;44.788;10.366;2023-07-13T02:53:11;27.90;99.90
43607;DHT22;29197;44.788;10.366;2023-07-13T02:55:59;27.80;99.90
43607;DHT22;29197;44.788;10.366;2023-07-13T02:58:48;27.80;99.90
43607;DHT22;29197;44.788;10.366;2023-07-13T03:01:37;27.70;99.90
43607;DHT22;29197;44.788;10.366;2023-07-13T03:04:27;27.80;99.90
43607;DHT22;29197;44.788;10.366;2023-07-13T03:07:15;27.80;99.90
43607;DHT22;29197;44.788;10.366;2023-07-13T03:10:05;27.80;99.90
43607;DHT22;29197;44.788;10.366;2023-07-13T03:12:54;27.80;99.90
43607;DHT22;29197;44.788;10.366;2023-07-13T03:15:42;27.80;99.90
43607;DHT22;29197;44.788;10.366;2023-07-13T03:18:31;27.80;99.90
43607;DHT22;29197;44.788;10.366;2023-07-13T03:21:21;27.70;99.90
43607;DHT22;29197;44.788;10.366;2023-07-13T03:24:10;27.70;99.90
43607;DHT22;29197;44.788;10.366;2023-07-13T03:27:00;27.70;99.90
43607;DHT22;29197;44.788;10.366;2023-07-13T03:29:48;27.60;99.90
43607;DHT22;29197;44.788;10.366;2023-07-13T03:32:37;27.70;99.90
43607;DHT22;29197;44.788;10.366;2023-07-13T03:35:26;27.60;99.90
43607;DHT22;29197;44.788;10.366;2023-07-13T03:38:16;27.50;99.90
43607;DHT22;29197;44.788;10.366;2023-07-13T03:41:04;27.50;99.90
43607;DHT22;29197;44.788;10.366;2023-07-13T03:43:53;27.50;99.90
43607;DHT22;29197;44.788;10.366;2023-07-13T03:46:42;27.50;99.90
43607;DHT22;29197;44.788;10.366;2023-07-13T03:49:30;27.50;99.90
43607;DHT22;29197;44.788;10.366;2023-07-13T03:52:19;27.50;99.90
43607;DHT22;29197;44.788;10.366;2023-07-13T03:55:09;27.50;99.90
43607;DHT22;29197;44.788;10.366;2023-07-13T03:58:00;27.50;99.90
43607;DHT22;29197;44.788;10.366;2023-07-13T04:00:48;27.50;99.90
43607;DHT22;29197;44.788;10.366;2023-07-13T04:03:37;27.50;99.90
43607;DHT22;29197;44.788;10.366;2023-07-13T04:06:28;27.40;99.90
43607;DHT22;29197;44.788;10.366;2023-07-13T04:09:17;27.40;99.90
43607;DHT22;29197;44.788;10.366;2023-07-13T04:12:08;27.40;99.90
43607;DHT22;29197;44.788;10.366;2023-07-13T04:14:56;27.40;99.90
43607;DHT22;29197;44.788;10.366;2023-07-13T04:17:45;27.40;99.90
43607;DHT22;29197;44.788;10.366;2023-07-13T04:20:34;27.50;99.90
43607;DHT22;29197;44.788;10.366;2023-07-13T04:23:23;27.60;99.90
43607;DHT22;29197;44.788;10.366;2023-07-13T04:26:11;27.60;99.90
43607;DHT22;29197;44.788;10.366;2023-07-13T04:29:01;27.70;99.90
43607;DHT22;29197;44.788;10.366;2023-07-13T04:31:52;27.80;99.90
43607;DHT22;29197;44.788;10.366;2023-07-13T04:34:41;27.80;99.90
43607;DHT22;29197;44.788;10.366;2023-07-13T04:37:29;27.90;99.90
43607;DHT22;29197;44.788;10.366;2023-07-13T04:40:18;28.00;99.90
43607;DHT22;29197;44.788;10.366;2023-07-13T04:43:07;28.00;99.90
43607;DHT22;29197;44.788;10.366;2023-07-13T04:45:57;28.10;99.90
43607;DHT22;29197;44.788;10.366;2023-07-13T04:48:46;28.20;99.90
43607;DHT22;29197;44.788;10.366;2023-07-13T04:51:38;28.20;99.90
43607;DHT22;29197;44.788;10.366;2023-07-13T04:54:26;28.10;99.90
43607;DHT22;29197;44.788;10.366;2023-07-13T04:57:15;28.10;99.90
43607;DHT22;29197;44.788;10.366;2023-07-13T05:00:05;28.10;99.90
43607;DHT22;29197;44.788;10.366;2023-07-13T05:02:56;28.10;99.90
43607;DHT22;29197;44.788;10.366;2023-07-13T05:05:55;28.10;99.90
43607;DHT22;29197;44.788;10.366;2023-07-13T05:08:44;28.00;99.90
43607;DHT22;29197;44.788;10.366;2023-07-13T05:11:32;28.10;99.90
43607;DHT22;29197;44.788;10.366;2023-07-13T05:14:21;28.00;99.90
43607;DHT22;29197;44.788;10.366;2023-07-13T05:17:09;28.00;99.90
43607;DHT22;29197;44.788;10.366;2023-07-13T05:19:59;28.00;99.90
43607;DHT22;29197;44.788;10.366;2023-07-13T05:22:48;28.00;99.90
43607;DHT22;29197;44.788;10.366;2023-07-13T05:25:38;28.00;99.90
43607;DHT22;29197;44.788;10.366;2023-07-13T05:28:27;28.00;99.90
43607;DHT22;29197;44.788;10.366;2023-07-13T05:31:16;27.90;99.90
43607;DHT22;29197;44.788;10.366;2023-07-13T05:34:05;27.90;99.90
43607;DHT22;29197;44.788;10.366;2023-07-13T05:36:55;27.90;99.90
43607;DHT22;29197;44.788;10.366;2023-07-13T05:39:44;27.90;99.90
43607;DHT22;29197;44.788;10.366;2023-07-13T05:42:33;27.90;99.90
43607;DHT22;29197;44.788;10.366;2023-07-13T05:45:21;27.80;99.90
43607;DHT22;29197;44.788;10.366;2023-07-13T05:48:10;27.80;99.90
43607;DHT22;29197;44.788;10.366;2023-07-13T05:50:59;27.60;99.90
43607;DHT22;29197;44.788;10.366;2023-07-13T05:53:49;27.60;99.90
43607;DHT22;29197;44.788;10.366;2023-07-13T05:56:38;27.50;99.90
43607;DHT22;29197;44.788;10.366;2023-07-13T05:59:26;27.40;99.90
43607;DHT22;29197;44.788;10.366;2023-07-13T06:07:53;27.10;99.90
43607;DHT22;29197;44.788;10.366;2023-07-13T06:10:43;27.10;99.90
43607;DHT22;29197;44.788;10.366;2023-07-13T06:13:32;26.80;99.90
43607;DHT22;29197;44.788;10.366;2023-07-13T06:16:21;27.10;99.90
43607;DHT22;29197;44.788;10.366;2023-07-13T06:19:09;27.10;99.90
43607;DHT22;29197;44.788;10.366;2023-07-13T06:21:58;27.20;99.90
43607;DHT22;29197;44.788;10.366;2023-07-13T06:24:46;27.30;99.90
43607;DHT22;29197;44.788;10.366;2023-07-13T06:27:36;27.30;99.90
43607;DHT22;29197;44.788;10.366;2023-07-13T06:30:25;27.30;99.90
43607;DHT22;29197;44.788;10.366;2023-07-13T06:33:14;27.30;99.90
43607;DHT22;29197;44.788;10.366;2023-07-13T06:36:02;27.20;99.90
43607;DHT22;29197;44.788;10.366;2023-07-13T06:38:51;27.20;99.90
43607;DHT22;29197;44.788;10.366;2023-07-13T06:50:09;26.90;99.90
43607;DHT22;29197;44.788;10.366;2023-07-13T06:52:58;26.70;99.90
43607;DHT22;29197;44.788;10.366;2023-07-13T06:55:48;26.70;99.90
43607;DHT22;29197;44.788;10.366;2023-07-13T06:58:37;26.70;99.90
43607;DHT22;29197;44.788;10.366;2023-07-13T07:01:27;26.80;99.90
43607;DHT22;29197;44.788;10.366;2023-07-13T07:04:15;26.90;99.90
43607;DHT22;29197;44.788;10.366;2023-07-13T07:07:04;26.90;99.90
43607;DHT22;29197;44.788;10.366;2023-07-13T07:09:53;27.00;99.90
43607;DHT22;29197;44.788;10.366;2023-07-13T07:12:41;27.00;99.90
43607;DHT22;29197;44.788;10.366;2023-07-13T07:15:30;26.90;99.90
43607;DHT22;29197;44.788;10.366;2023-07-13T07:18:20;26.80;99.90
43607;DHT22;29197;44.788;10.366;2023-07-13T07:21:09;27.70;99.90
43607;DHT22;29197;44.788;10.366;2023-07-13T07:23:58;26.80;99.90
43607;DHT22;29197;44.788;10.366;2023-07-13T07:26:49;26.80;99.90
43607;DHT22;29197;44.788;10.366;2023-07-13T07:29:40;26.80;99.90
43607;DHT22;29197;44.788;10.366;2023-07-13T09:21:17;27.00;99.90
43607;DHT22;29197;44.788;10.366;2023-07-13T09:24:27;27.10;99.90
43607;DHT22;29197;44.788;10.366;2023-07-13T09:30:23;27.30;99.90
43607;DHT22;29197;44.788;10.366;2023-07-13T09:53:22;28.10;99.90
43607;DHT22;29197;44.788;10.366;2023-07-13T09:56:22;28.10;99.90
43607;DHT22;29197;44.788;10.366;2023-07-13T09:59:19;28.00;99.90
43607;DHT22;29197;44.788;10.366;2023-07-13T10:02:23;28.10;99.90
43607;DHT22;29197;44.788;10.366;2023-07-13T10:05:14;28.20;99.90
43607;DHT22;29197;44.788;10.366;2023-07-13T10:08:04;28.20;99.90
43607;DHT22;29197;44.788;10.366;2023-07-13T10:10:59;28.20;99.90
43607;DHT22;29197;44.788;10.366;2023-07-13T10:13:52;28.20;99.90
43607;DHT22;29197;44.788;10.366;2023-07-13T10:16:44;28.20;99.90
43607;DHT22;29197;44.788;10.366;2023-07-13T10:19:34;28.20;99.90
43607;DHT22;29197;44.788;10.366;2023-07-13T12:26:10;33.80;99.90
43607;DHT22;29197;44.788;10.366;2023-07-13T12:29:01;33.80;99.90
43607;DHT22;29197;44.788;10.366;2023-07-13T12:31:55;33.90;99.90
43607;DHT22;29197;44.788;10.366;2023-07-13T12:34:52;34.00;99.90
43607;DHT22;29197;44.788;10.366;2023-07-13T12:37:42;33.80;99.90
43607;DHT22;29197;44.788;10.366;2023-07-13T12:40:33;33.70;99.90
43607;DHT22;29197;44.788;10.366;2023-07-13T12:43:25;33.80;99.90
43607;DHT22;29197;44.788;10.366;2023-07-13T12:46:17;33.80;99.90
43607;DHT22;29197;44.788;10.366;2023-07-13T12:49:13;33.90;99.90
43607;DHT22;29197;44.788;10.366;2023-07-13T12:52:13;33.90;99.90
43607;DHT22;29197;44.788;10.366;2023-07-13T12:55:06;34.00;99.90
43607;DHT22;29197;44.788;10.366;2023-07-13T12:57:58;34.10;99.90
43607;DHT22;29197;44.788;10.366;2023-07-13T13:00:50;34.30;99.90
43607;DHT22;29197;44.788;10.366;2023-07-13T13:03:46;34.40;99.90
43607;DHT22;29197;44.788;10.366;2023-07-13T13:06:37;34.40;99.90
43607;DHT22;29197;44.788;10.366;2023-07-13T13:09:28;34.40;99.90
43607;DHT22;29197;44.788;10.366;2023-07-13T13:12:17;34.50;99.90
43607;DHT22;29197;44.788;10.366;2023-07-13T13:15:07;34.50;99.90
43607;DHT22;29197;44.788;10.366;2023-07-13T13:17:56;34.50;99.90
43607;DHT22;29197;44.788;10.366;2023-07-13T13:20:46;34.60;99.90
43607;DHT22;29197;44.788;10.366;2023-07-13T17:10:33;31.40;99.90
43607;DHT22;29197;44.788;10.366;2023-07-13T17:13:22;31.40;99.90
43607;DHT22;29197;44.788;10.366;2023-07-13T17:16:12;31.30;99.90
43607;DHT22;29197;44.788;10.366;2023-07-13T17:19:01;31.30;99.90
43607;DHT22;29197;44.788;10.366;2023-07-13T17:21:54;31.20;99.90
43607;DHT22;29197;44.788;10.366;2023-07-13T17:24:43;31.20;99.90
43607;DHT22;29197;44.788;10.366;2023-07-13T17:27:32;31.10;99.90
43607;DHT22;29197;44.788;10.366;2023-07-13T17:30:21;31.10;99.90
43607;DHT22;29197;44.788;10.366;2023-07-13T17:33:25;31.10;99.90
43607;DHT22;29197;44.788;10.366;2023-07-13T17:36:16;31.00;99.90
43607;DHT22;29197;44.788;10.366;2023-07-13T17:39:14;31.00;99.90
43607;DHT22;29197;44.788;10.366;2023-07-13T17:42:04;31.00;99.90
43607;DHT22;29197;44.788;10.366;2023-07-13T17:44:53;31.00;99.90
43607;DHT22;29197;44.788;10.366;2023-07-13T17:47:41;31.20;99.90
43607;DHT22;29197;44.788;10.366;2023-07-13T17:50:32;31.00;99.90
43607;DHT22;29197;44.788;10.366;2023-07-13T17:53:23;31.00;99.90
43607;DHT22;29197;44.788;10.366;2023-07-13T17:56:13;31.00;99.90
43607;DHT22;29197;44.788;10.366;2023-07-13T17:59:03;31.00;99.90
43607;DHT22;29197;44.788;10.366;2023-07-13T18:01:52;31.00;99.90
43607;DHT22;29197;44.788;10.366;2023-07-13T18:04:40;31.00;99.90
43607;DHT22;29197;44.788;10.366;2023-07-13T18:07:29;30.80;99.90
43607;DHT22;29197;44.788;10.366;2023-07-13T18:10:19;30.80;99.90
43607;DHT22;29197;44.788;10.366;2023-07-13T18:13:11;30.70;99.90
43607;DHT22;29197;44.788;10.366;2023-07-13T18:16:00;30.70;99.90
43607;DHT22;29197;44.788;10.366;2023-07-13T18:18:49;30.60;99.90
43607;DHT22;29197;44.788;10.366;2023-07-13T18:21:38;30.60;99.90
43607;DHT22;29197;44.788;10.366;2023-07-13T18:24:26;30.60;99.90
43607;DHT22;29197;44.788;10.366;2023-07-13T18:27:15;30.60;99.90
43607;DHT22;29197;44.788;10.366;2023-07-13T18:30:09;30.50;99.90
43607;DHT22;29197;44.788;10.366;2023-07-13T18:32:58;30.50;99.90
43607;DHT22;29197;44.788;10.366;2023-07-13T18:35:47;30.50;99.90
43607;DHT22;29197;44.788;10.366;2023-07-13T18:38:36;30.50;99.90
43607;DHT22;29197;44.788;10.366;2023-07-13T18:41:25;30.50;99.90
43607;DHT22;29197;44.788;10.366;2023-07-13T18:44:13;30.50;99.90
43607;DHT22;29197;44.788;10.366;2023-07-13T18:47:03;30.40;99.90
43607;DHT22;29197;44.788;10.366;2023-07-13T18:49:56;30.40;99.90
43607;DHT22;29197;44.788;10.366;2023-07-13T18:52:46;30.40;99.90
43607;DHT22;29197;44.788;10.366;2023-07-13T18:55:35;30.40;99.90
43607;DHT22;29197;44.788;10.366;2023-07-13T19:47:11;29.80;99.90
43607;DHT22;29197;44.788;10.366;2023-07-13T19:49:59;29.70;99.90
43607;DHT22;29197;44.788;10.366;2023-07-13T19:52:49;29.70;99.90
43607;DHT22;29197;44.788;10.366;2023-07-13T19:55:38;29.80;99.90
43607;DHT22;29197;44.788;10.366;2023-07-13T19:58:28;29.70;99.90
43607;DHT22;29197;44.788;10.366;2023-07-13T20:01:17;29.70;99.90
43607;DHT22;29197;44.788;10.366;2023-07-13T20:04:06;29.70;99.90
43607;DHT22;29197;44.788;10.366;2023-07-13T20:06:54;29.70;99.90
43607;DHT22;29197;44.788;10.366;2023-07-13T20:09:44;29.70;99.90
43607;DHT22;29197;44.788;10.366;2023-07-13T20:12:36;29.60;99.90
43607;DHT22;29197;44.788;10.366;2023-07-13T20:15:28;29.60;99.90
43607;DHT22;29197;44.788;10.366;2023-07-13T20:18:18;29.50;99.90
43607;DHT22;29197;44.788;10.366;2023-07-13T20:21:09;29.50;99.90
43607;DHT22;29197;44.788;10.366;2023-07-13T20:24:13;29.40;99.90
43607;DHT22;29197;44.788;10.366;2023-07-13T20:27:04;29.50;99.90
43607;DHT22;29197;44.788;10.366;2023-07-13T20:29:53;29.50;99.90
43607;DHT22;29197;44.788;10.366;2023-07-13T20:32:47;29.40;99.90
43607;DHT22;29197;44.788;10.366;2023-07-13T20:35:36;29.40;99.90
43607;DHT22;29197;44.788;10.366;2023-07-13T20:38:25;29.50;99.90
43607;DHT22;29197;44.788;10.366;2023-07-13T20:41:13;29.50;99.90
43607;DHT22;29197;44.788;10.366;2023-07-13T20:44:03;29.40;99.90
43607;DHT22;29197;44.788;10.366;2023-07-13T20:46:52;29.40;99.90
43607;DHT22;29197;44.788;10.366;2023-07-13T20:49:42;29.40;99.90
43607;DHT22;29197;44.788;10.366;2023-07-13T20:52:31;29.40;99.90
43607;DHT22;29197;44.788;10.366;2023-07-13T20:55:22;29.40;99.90
43607;DHT22;29197;44.788;10.366;2023-07-13T20:58:11;29.30;99.90
43607;DHT22;29197;44.788;10.366;2023-07-13T21:01:00;29.30;99.90
43607;DHT22;29197;44.788;10.366;2023-07-13T21:03:52;29.30;99.90
43607;DHT22;29197;44.788;10.366;2023-07-13T21:06:44;29.20;99.90
43607;DHT22;29197;44.788;10.366;2023-07-13T21:09:33;29.20;99.90
43607;DHT22;29197;44.788;10.366;2023-07-13T21:12:21;29.10;99.90
43607;DHT22;29197;44.788;10.366;2023-07-13T21:15:11;29.10;99.90
43607;DHT22;29197;44.788;10.366;2023-07-13T21:18:00;29.10;99.90
43607;DHT22;29197;44.788;10.366;2023-07-13T21:20:51;29.00;99.90
43607;DHT22;29197;44.788;10.366;2023-07-13T21:23:41;29.00;99.90
43607;DHT22;29197;44.788;10.366;2023-07-13T21:26:30;29.00;99.90
43607;DHT22;29197;44.788;10.366;2023-07-13T21:29:18;29.00;99.90
